Time;durP1;ratioP1;P1;durP2;ratioP2;P2;SDS_P1;SDS_P2;PMS_P1;PMS_P2;Temp;Humidity;BMP_temperature;BMP_pressure;BME280_temperature;BME280_humidity;BME280_pressure;Samples;Min_cycle;Max_cycle;Signal;HPM_P1;HPM_P2
2021/01/19 00:01:54;;;;;;;27.42;24.45;;;19.90;44.50;;;;;;5073501;28;20035;-53
2021/01/19 00:04:20;;;;;;;29.65;25.92;;;19.90;44.50;;;;;;5079453;28;20020;-54
2021/01/19 00:06:46;;;;;;;28.17;25.17;;;19.90;44.50;;;;;;5093166;28;20465;-55
2021/01/19 00:09:12;;;;;;;30.60;27.10;;;19.90;44.60;;;;;;5093500;28;20032;-54
2021/01/19 00:11:38;;;;;;;29.20;26.20;;;19.90;44.60;;;;;;5092538;28;20043;-54
2021/01/19 00:14:04;;;;;;;30.05;26.85;;;19.80;44.50;;;;;;5093663;28;20054;-54
2021/01/19 00:16:30;;;;;;;27.77;24.75;;;19.90;44.60;;;;;;5091703;28;20024;-54
2021/01/19 00:18:56;;;;;;;27.55;24.27;;;19.80;44.50;;;;;;5093417;28;20032;-54
2021/01/19 00:21:22;;;;;;;26.15;23.48;;;19.80;44.50;;;;;;5093195;28;20055;-54
2021/01/19 00:23:48;;;;;;;25.58;22.98;;;19.80;44.50;;;;;;5085011;28;20378;-54
2021/01/19 00:26:14;;;;;;;27.65;24.10;;;19.80;44.50;;;;;;5078908;28;20050;-53
2021/01/19 00:28:40;;;;;;;27.17;24.27;;;19.70;44.40;;;;;;5093603;28;20032;-54
2021/01/19 00:31:07;;;;;;;24.90;22.35;;;19.80;44.40;;;;;;5093785;28;20515;-54
2021/01/19 00:33:33;;;;;;;26.80;23.90;;;19.70;44.40;;;;;;5092025;28;20382;-54
2021/01/19 00:35:59;;;;;;;24.00;21.52;;;19.80;44.40;;;;;;5076028;28;20035;-54
2021/01/19 00:38:25;;;;;;;25.40;22.77;;;19.80;44.40;;;;;;5073275;28;20466;-54
2021/01/19 00:40:51;;;;;;;24.25;21.85;;;19.70;44.30;;;;;;5075555;28;20519;-54
2021/01/19 00:43:17;;;;;;;24.08;21.52;;;19.70;44.30;;;;;;5088786;28;20493;-54
2021/01/19 00:45:43;;;;;;;23.67;20.75;;;19.70;44.30;;;;;;5071676;28;20070;-53
2021/01/19 00:48:09;;;;;;;23.83;21.27;;;19.70;44.30;;;;;;5072943;28;20079;-54
2021/01/19 00:50:35;;;;;;;23.88;21.27;;;19.70;44.30;;;;;;5072916;28;20095;-54
2021/01/19 00:53:03;;;;;;;23.15;20.80;;;19.60;44.20;;;;;;5073457;28;20108;-54
2021/01/19 00:55:29;;;;;;;23.38;20.98;;;19.60;44.30;;;;;;5071876;28;20433;-54
2021/01/19 00:57:55;;;;;;;23.05;20.63;;;19.60;44.30;;;;;;5072976;28;20051;-53
2021/01/19 01:00:25;;;;;;;23.88;21.45;;;19.60;44.30;;;;;;5075204;28;20040;-54
2021/01/19 01:02:51;;;;;;;23.52;21.10;;;19.60;44.30;;;;;;5087873;28;20079;-54
2021/01/19 01:05:18;;;;;;;22.23;19.80;;;19.60;44.30;;;;;;5076822;28;20032;-54
2021/01/19 01:07:44;;;;;;;25.38;21.65;;;19.50;44.20;;;;;;5075119;28;20029;-54
2021/01/19 01:10:13;;;;;;;22.33;20.08;;;19.50;44.20;;;;;;5093180;28;20096;-53
2021/01/19 01:12:43;;;;;;;21.30;19.10;;;19.50;44.20;;;;;;5091009;28;20033;-54
2021/01/19 01:15:11;;;;;;;21.35;19.15;;;19.50;44.20;;;;;;5075055;28;20041;-54
2021/01/19 01:17:40;;;;;;;21.23;19.02;;;19.50;44.20;;;;;;5091599;28;20408;-53
2021/01/19 01:20:07;;;;;;;21.58;19.35;;;19.50;44.20;;;;;;5076488;28;20450;-54
2021/01/19 01:22:44;;;;;;;21.55;19.35;;;19.50;44.20;;;;;;5076273;28;20044;-54
2021/01/19 01:25:11;;;;;;;20.23;18.15;;;19.50;44.20;;;;;;5076316;28;20470;-54
2021/01/19 01:27:38;;;;;;;22.50;18.63;;;19.50;44.20;;;;;;5090835;28;20096;-54
2021/01/19 01:30:06;;;;;;;21.73;19.33;;;19.50;44.30;;;;;;5096568;28;20066;-54
2021/01/19 01:32:32;;;;;;;21.10;18.63;;;19.50;44.30;;;;;;5075349;28;20190;-54
2021/01/19 01:34:58;;;;;;;20.33;18.23;;;19.50;44.30;;;;;;5076131;28;20418;-54
2021/01/19 01:37:24;;;;;;;20.25;18.10;;;19.40;44.30;;;;;;5076117;28;20090;-54
2021/01/19 01:39:50;;;;;;;19.52;17.50;;;19.40;44.30;;;;;;5086765;28;20118;-54
2021/01/19 01:42:21;;;;;;;19.73;17.45;;;19.40;44.30;;;;;;5096416;28;20493;-54
2021/01/19 01:44:48;;;;;;;20.35;18.17;;;19.30;44.20;;;;;;5096215;28;20079;-54
2021/01/19 01:47:21;;;;;;;21.05;18.85;;;19.40;44.90;;;;;;5096078;28;20031;-54
2021/01/19 01:49:48;;;;;;;20.33;18.10;;;19.30;44.20;;;;;;5095963;28;20047;-55
2021/01/19 01:52:15;;;;;;;19.73;17.52;;;19.30;44.30;;;;;;5096287;28;20036;-55
2021/01/19 01:54:42;;;;;;;19.00;17.10;;;19.40;44.30;;;;;;5087863;28;20036;-54
2021/01/19 01:57:08;;;;;;;19.67;17.63;;;19.30;44.30;;;;;;5074364;28;20424;-54
2021/01/19 01:59:34;;;;;;;18.83;16.92;;;19.30;44.20;;;;;;5075556;28;20033;-55
2021/01/19 02:02:10;;;;;;;19.85;17.77;;;19.30;44.30;;;;;;5075446;28;20028;-55
2021/01/19 02:04:37;;;;;;;19.45;16.80;;;19.30;44.30;;;;;;5077322;28;20042;-55
2021/01/19 02:07:10;;;;;;;17.55;15.75;;;19.30;44.30;;;;;;5095706;28;20028;-54
2021/01/19 02:09:42;;;;;;;19.23;17.17;;;19.30;44.30;;;;;;5094601;28;20040;-54
2021/01/19 02:12:16;;;;;;;20.88;17.33;;;19.30;44.30;;;;;;5095535;28;20032;-54
2021/01/19 02:14:56;;;;;;;18.58;16.60;;;19.20;44.20;;;;;;5095514;28;20032;-54
2021/01/19 02:18:00;;;;;;;18.97;17.03;;;19.20;44.20;;;;;;5094284;28;20074;-55
2021/01/19 02:20:55;;;;;;;17.42;15.55;;;19.20;44.20;;;;;;5085052;28;20849;-55
2021/01/19 02:23:37;;;;;;;18.17;16.27;;;19.20;44.20;;;;;;5094536;28;20496;-55
2021/01/19 02:26:37;;;;;;;17.50;15.70;;;19.20;44.20;;;;;;5094654;28;20381;-55
2021/01/19 02:29:27;;;;;;;17.52;15.77;;;19.20;44.10;;;;;;5094885;28;20423;-55
2021/01/19 02:31:59;;;;;;;19.08;16.17;;;19.20;44.10;;;;;;5087186;28;20029;-55
2021/01/19 02:34:44;;;;;;;17.02;15.23;;;19.10;44.00;;;;;;5091219;28;20063;-55
2021/01/19 02:37:11;;;;;;;17.00;14.82;;;19.20;44.10;;;;;;5092629;28;20028;-55
2021/01/19 02:40:06;;;;;;;16.45;14.85;;;19.10;44.10;;;;;;5073580;28;20382;-55
2021/01/19 02:42:51;;;;;;;18.67;15.32;;;19.10;44.10;;;;;;5081992;28;20529;-55
2021/01/19 02:45:17;;;;;;;18.98;14.85;;;19.10;44.00;;;;;;5095258;28;20405;-55
2021/01/19 02:47:43;;;;;;;16.52;14.82;;;19.10;44.00;;;;;;5085731;28;20027;-54
2021/01/19 02:50:09;;;;;;;15.23;13.48;;;19.10;44.10;;;;;;5074909;28;20116;-54
2021/01/19 02:52:41;;;;;;;15.88;14.32;;;19.00;44.00;;;;;;5073298;28;20037;-56
2021/01/19 02:55:08;;;;;;;15.85;13.93;;;19.00;44.00;;;;;;5090290;28;20390;-55
2021/01/19 02:58:01;;;;;;;15.80;13.88;;;19.00;44.00;;;;;;5074290;28;20025;-55
2021/01/19 03:00:33;;;;;;;15.38;13.73;;;19.00;44.10;;;;;;5074400;28;20025;-55
2021/01/19 03:03:00;;;;;;;15.75;14.13;;;19.00;44.10;;;;;;5089984;28;20017;-55
2021/01/19 03:05:28;;;;;;;14.93;13.43;;;19.00;44.00;;;;;;5074312;28;20069;-55
2021/01/19 03:07:55;;;;;;;16.30;13.85;;;19.00;44.00;;;;;;5074237;28;20036;-55
2021/01/19 03:10:21;;;;;;;14.75;13.27;;;18.90;44.00;;;;;;5074397;28;20378;-55
2021/01/19 03:12:47;;;;;;;15.40;13.80;;;18.90;44.00;;;;;;5074100;28;20075;-55
2021/01/19 03:15:17;;;;;;;16.98;14.88;;;18.90;44.00;;;;;;5074090;28;20527;-55
2021/01/19 03:17:43;;;;;;;14.55;13.05;;;18.90;44.10;;;;;;5074042;28;20078;-55
2021/01/19 03:20:12;;;;;;;14.00;12.65;;;18.90;44.10;;;;;;5072544;28;20056;-55
2021/01/19 03:22:38;;;;;;;15.18;13.63;;;18.90;44.10;;;;;;5073932;28;20028;-54
2021/01/19 03:25:05;;;;;;;15.98;12.90;;;18.90;44.10;;;;;;5074076;28;20028;-54
2021/01/19 03:27:31;;;;;;;14.85;13.35;;;18.80;44.10;;;;;;5074001;28;20494;-53
2021/01/19 03:29:57;;;;;;;17.27;13.30;;;18.80;44.10;;;;;;5089634;28;20419;-55
2021/01/19 03:32:23;;;;;;;13.18;11.88;;;18.80;44.10;;;;;;5073615;28;20107;-55
2021/01/19 03:34:49;;;;;;;13.35;12.05;;;18.80;44.20;;;;;;5073632;28;20032;-54
2021/01/19 03:37:15;;;;;;;14.00;12.60;;;18.80;44.20;;;;;;5089680;28;20024;-53
2021/01/19 03:39:41;;;;;;;14.38;12.88;;;18.80;44.20;;;;;;5073649;28;20060;-54
2021/01/19 03:42:07;;;;;;;13.45;11.77;;;18.80;44.20;;;;;;5074016;28;20484;-54
2021/01/19 03:44:33;;;;;;;13.23;11.90;;;18.80;44.20;;;;;;5073727;28;20024;-53
2021/01/19 03:46:59;;;;;;;14.77;11.93;;;18.80;44.20;;;;;;5089331;28;20523;-54
2021/01/19 03:49:25;;;;;;;14.40;12.23;;;18.80;44.20;;;;;;5089561;28;20070;-54
2021/01/19 03:51:51;;;;;;;12.73;11.32;;;18.80;44.20;;;;;;5072287;28;20119;-55
2021/01/19 03:54:17;;;;;;;13.43;11.75;;;18.80;44.20;;;;;;5088479;28;20020;-54
2021/01/19 03:56:43;;;;;;;13.35;12.02;;;18.80;44.20;;;;;;5093755;28;20031;-54
2021/01/19 03:59:09;;;;;;;12.80;11.60;;;18.80;44.20;;;;;;5093610;28;20028;-54
2021/01/19 04:01:41;;;;;;;12.88;11.57;;;18.70;44.20;;;;;;5093710;28;20031;-54
2021/01/19 04:04:08;;;;;;;13.80;11.75;;;18.70;44.20;;;;;;5093764;28;20036;-54
2021/01/19 04:06:34;;;;;;;12.82;11.52;;;18.70;44.30;;;;;;5093889;28;20020;-54
2021/01/19 04:09:00;;;;;;;13.80;12.30;;;18.70;44.20;;;;;;5093783;28;20093;-54
2021/01/19 04:11:26;;;;;;;12.43;11.13;;;18.70;44.30;;;;;;5093543;28;20028;-54
2021/01/19 04:13:52;;;;;;;13.25;11.63;;;18.70;44.30;;;;;;5093549;28;20043;-54
2021/01/19 04:16:18;;;;;;;12.55;11.30;;;18.70;44.30;;;;;;5093455;28;20377;-54
2021/01/19 04:18:44;;;;;;;12.52;11.32;;;18.70;44.30;;;;;;5093572;28;20488;-54
2021/01/19 04:21:10;;;;;;;12.38;10.82;;;18.70;44.30;;;;;;5093453;28;20103;-54
2021/01/19 04:23:37;;;;;;;12.50;11.30;;;18.70;44.30;;;;;;5092531;28;20099;-54
2021/01/19 04:26:03;;;;;;;12.48;11.18;;;18.70;44.30;;;;;;5092320;28;20098;-54
2021/01/19 04:28:29;;;;;;;12.82;10.73;;;18.70;44.30;;;;;;5093387;28;20028;-53
2021/01/19 04:30:55;;;;;;;12.23;10.98;;;18.70;44.30;;;;;;5092205;28;20039;-54
2021/01/19 04:33:21;;;;;;;11.20;10.10;;;18.70;44.30;;;;;;5093268;28;20386;-54
2021/01/19 04:35:47;;;;;;;11.20;10.02;;;18.60;44.20;;;;;;5093338;28;20031;-53
2021/01/19 04:38:13;;;;;;;12.23;10.80;;;18.60;44.20;;;;;;5093265;28;20081;-53
2021/01/19 04:40:39;;;;;;;12.27;10.98;;;18.60;44.30;;;;;;5091941;28;20032;-53
2021/01/19 04:43:05;;;;;;;11.38;10.18;;;18.60;44.30;;;;;;5093155;28;20453;-54
2021/01/19 04:45:33;;;;;;;11.05;9.88;;;18.60;44.30;;;;;;5093945;28;20031;-54
2021/01/19 04:48:02;;;;;;;11.55;10.35;;;18.60;44.40;;;;;;5096737;28;20081;-59
2021/01/19 04:50:34;;;;;;;12.85;9.70;;;18.60;44.30;;;;;;5096434;28;20032;-58
2021/01/19 04:53:01;;;;;;;11.48;10.18;;;18.60;44.30;;;;;;5095425;28;20027;-59
2021/01/19 04:55:27;;;;;;;11.68;9.95;;;18.60;44.40;;;;;;5095365;28;20028;-59
2021/01/19 04:57:58;;;;;;;11.02;9.73;;;18.60;44.40;;;;;;5096559;28;20040;-59
2021/01/19 05:00:35;;;;;;;12.73;10.40;;;18.50;44.30;;;;;;5112192;28;20210;-59
2021/01/19 05:03:22;;;;;;;12.02;10.00;;;18.50;44.30;;;;;;5096327;28;20020;-59
2021/01/19 05:06:01;;;;;;;11.45;9.77;;;18.50;44.30;;;;;;5095129;28;20113;-59
2021/01/19 05:08:50;;;;;;;10.15;9.15;;;18.50;44.30;;;;;;5096391;28;20461;-59
2021/01/19 05:11:28;;;;;;;11.45;9.68;;;18.60;44.40;;;;;;5096384;28;20034;-59
2021/01/19 05:14:00;;;;;;;10.48;9.43;;;18.50;45.00;;;;;;5096722;28;20099;-59
2021/01/19 05:16:34;;;;;;;10.20;8.93;;;18.50;44.40;;;;;;5095121;28;20024;-59
2021/01/19 05:19:03;;;;;;;10.23;9.20;;;18.50;44.40;;;;;;5096262;28;20028;-59
2021/01/19 05:21:29;;;;;;;9.98;8.85;;;18.50;44.40;;;;;;5096477;28;20097;-59
2021/01/19 05:23:56;;;;;;;9.75;8.80;;;18.50;44.40;;;;;;5096636;28;20020;-59
2021/01/19 05:26:22;;;;;;;10.50;9.07;;;18.50;44.40;;;;;;5112358;28;20050;-59
2021/01/19 05:28:51;;;;;;;9.55;8.20;;;18.50;44.50;;;;;;5096536;28;20028;-59
2021/01/19 05:31:21;;;;;;;10.48;9.18;;;18.40;44.50;;;;;;5096686;28;20024;-59
2021/01/19 05:33:53;;;;;;;10.50;8.77;;;18.40;44.50;;;;;;5096191;28;20187;-60
2021/01/19 05:36:24;;;;;;;9.73;8.73;;;18.40;44.50;;;;;;5096191;28;20042;-60
2021/01/19 05:38:53;;;;;;;9.10;8.20;;;18.50;44.50;;;;;;5096015;28;20042;-61
2021/01/19 05:41:32;;;;;;;9.40;8.50;;;18.40;44.50;;;;;;5094367;28;20126;-60
2021/01/19 05:44:22;;;;;;;9.30;8.30;;;18.40;44.50;;;;;;5095820;28;20042;-59
2021/01/19 05:46:59;;;;;;;9.38;8.40;;;18.40;44.50;;;;;;5095737;28;20059;-60
2021/01/19 05:49:30;;;;;;;9.15;8.18;;;18.40;44.50;;;;;;5095435;28;20040;-61
2021/01/19 05:52:15;;;;;;;8.75;7.93;;;18.50;44.60;;;;;;5095601;28;20035;-61
2021/01/19 05:54:46;;;;;;;9.55;8.48;;;18.40;44.50;;;;;;5095682;28;20035;-61
2021/01/19 05:57:14;;;;;;;8.40;7.60;;;18.40;44.60;;;;;;5093081;28;20038;-60
2021/01/19 05:59:41;;;;;;;9.85;8.85;;;18.40;44.60;;;;;;5095220;28;20028;-61
2021/01/19 06:02:17;;;;;;;9.65;8.65;;;18.40;44.60;;;;;;5095568;28;20028;-60
2021/01/19 06:04:50;;;;;;;9.63;8.55;;;18.40;44.60;;;;;;5095161;28;20056;-59
2021/01/19 06:07:19;;;;;;;9.77;8.82;;;18.40;44.70;;;;;;5110608;28;20020;-60
2021/01/19 06:09:47;;;;;;;9.82;8.82;;;18.40;44.70;;;;;;5094958;28;20039;-61
2021/01/19 06:12:14;;;;;;;11.35;8.32;;;18.40;44.80;;;;;;5094499;28;20035;-61
2021/01/19 06:14:49;;;;;;;9.85;8.85;;;18.40;44.80;;;;;;5095372;28;20100;-59
2021/01/19 06:17:21;;;;;;;10.57;9.40;;;18.40;44.80;;;;;;5094690;28;20111;-60
2021/01/19 06:19:48;;;;;;;12.30;11.00;;;18.40;44.80;;;;;;5095382;28;20097;-59
2021/01/19 06:22:16;;;;;;;20.58;18.38;;;18.40;44.90;;;;;;5094804;28;20369;-61
2021/01/19 06:24:45;;;;;;;33.10;29.58;;;18.40;44.90;;;;;;5077032;28;20028;-60
2021/01/19 06:27:32;;;;;;;43.28;38.50;;;18.40;45.00;;;;;;5093756;28;20111;-60
2021/01/19 06:30:01;;;;;;;51.45;45.67;;;18.30;44.90;;;;;;5095008;28;20036;-60
2021/01/19 06:32:29;;;;;;;65.93;55.80;;;18.40;44.90;;;;;;5093698;28;20122;-59
2021/01/19 06:34:56;;;;;;;64.22;57.40;;;18.40;44.90;;;;;;5094832;28;20047;-60
2021/01/19 06:37:32;;;;;;;72.82;64.78;;;18.40;44.90;;;;;;5093320;28;20031;-60
2021/01/19 06:40:00;;;;;;;78.07;69.38;;;18.30;44.80;;;;;;5094983;28;20028;-61
2021/01/19 06:42:32;;;;;;;82.82;73.82;;;18.30;44.80;;;;;;5092954;28;20385;-60
2021/01/19 06:45:00;;;;;;;81.75;73.07;;;18.30;44.80;;;;;;5095207;28;20122;-60
2021/01/19 06:47:26;;;;;;;88.25;77.63;;;18.30;44.80;;;;;;5092286;28;20355;-60
2021/01/19 06:49:53;;;;;;;89.65;79.30;;;18.30;44.80;;;;;;5094153;28;20432;-60
2021/01/19 06:52:21;;;;;;;87.03;77.47;;;18.30;44.80;;;;;;5071843;28;20032;-59
2021/01/19 06:55:21;;;;;;;91.75;81.85;;;18.30;44.80;;;;;;5089514;28;20036;-61
2021/01/19 06:58:08;;;;;;;86.40;77.03;;;18.30;44.90;;;;;;5083530;28;20402;-61
2021/01/19 07:00:42;;;;;;;85.93;76.68;;;18.30;44.90;;;;;;5087400;28;20035;-59
2021/01/19 07:03:22;;;;;;;88.78;78.70;;;18.30;44.80;;;;;;5091797;28;20024;-59
2021/01/19 07:06:00;;;;;;;86.22;77.07;;;18.20;44.80;;;;;;5082621;28;20032;-59
2021/01/19 07:08:50;;;;;;;89.80;80.18;;;18.20;44.80;;;;;;5089157;28;21538;-60
2021/01/19 07:11:34;;;;;;;93.80;83.93;;;18.20;44.80;;;;;;5093513;28;20031;-61
2021/01/19 07:14:13;;;;;;;91.00;81.10;;;18.20;44.80;;;;;;5086190;28;20103;-60
2021/01/19 07:17:00;;;;;;;94.32;83.50;;;18.20;44.90;;;;;;5094473;28;20035;-60
2021/01/19 07:19:50;;;;;;;89.65;78.70;;;18.20;44.90;;;;;;5094194;28;20031;-61
2021/01/19 07:22:49;;;;;;;91.30;81.30;;;18.20;44.90;;;;;;5092017;28;20111;-60
2021/01/19 07:25:15;;;;;;;91.75;81.88;;;18.10;44.90;;;;;;5094422;28;20058;-60
2021/01/19 07:27:41;;;;;;;92.88;82.60;;;18.20;44.90;;;;;;5092840;28;20035;-61
2021/01/19 07:30:09;;;;;;;92.47;82.45;;;18.20;45.00;;;;;;5092635;28;20071;-60
2021/01/19 07:32:37;;;;;;;92.88;82.85;;;18.10;45.00;;;;;;5093773;28;20036;-59
2021/01/19 07:35:06;;;;;;;89.63;80.18;;;18.10;45.10;;;;;;5094087;28;20040;-61
2021/01/19 07:37:35;;;;;;;87.78;78.25;;;18.10;45.20;;;;;;5093175;28;20037;-61
2021/01/19 07:40:02;;;;;;;88.60;79.10;;;18.10;45.20;;;;;;5094001;28;20020;-60
2021/01/19 07:42:35;;;;;;;96.13;85.68;;;18.10;45.20;;;;;;5092692;28;20118;-59
2021/01/19 07:45:05;;;;;;;104.22;93.03;;;18.10;45.40;;;;;;5094029;28;20031;-59
2021/01/19 07:47:39;;;;;;;114.45;100.47;;;18.10;45.40;;;;;;5093890;28;20462;-59
2021/01/19 07:50:14;;;;;;;111.53;99.40;;;18.10;45.50;;;;;;5093902;28;20071;-59
2021/01/19 07:52:45;;;;;;;112.70;100.53;;;18.10;45.50;;;;;;5092665;28;20381;-59
2021/01/19 07:55:12;;;;;;;112.05;99.78;;;18.10;45.40;;;;;;5093706;28;20036;-59
2021/01/19 07:57:38;;;;;;;116.53;101.80;;;18.10;45.40;;;;;;5093373;28;20043;-59
2021/01/19 08:00:05;;;;;;;114.93;102.47;;;18.10;45.40;;;;;;5093553;28;20020;-59
2021/01/19 08:02:37;;;;;;;114.57;101.95;;;18.10;45.50;;;;;;5092965;28;20020;-60
2021/01/19 08:05:05;;;;;;;116.10;102.90;;;18.10;45.50;;;;;;5093097;28;20020;-58
2021/01/19 08:07:39;;;;;;;115.47;101.35;;;18.10;45.50;;;;;;5092946;28;20052;-58
2021/01/19 08:10:30;;;;;;;113.72;101.32;;;18.10;45.50;;;;;;5093322;28;20028;-61
2021/01/19 08:12:58;;;;;;;115.97;103.13;;;18.10;45.60;;;;;;5091929;28;20386;-60
2021/01/19 08:15:31;;;;;;;110.95;98.85;;;18.10;45.60;;;;;;5093507;28;20125;-60
2021/01/19 08:18:02;;;;;;;108.88;96.95;;;18.10;45.60;;;;;;5092977;28;20021;-61
2021/01/19 08:20:28;;;;;;;;;;;18.20;45.70;;;;;;5094598;28;20028;-61
2021/01/19 08:22:56;;;;;;;108.47;93.97;;;18.20;45.60;;;;;;5097666;28;20372;-61
2021/01/19 08:25:24;;;;;;;110.10;95.05;;;18.20;45.50;;;;;;5097561;28;20035;-60
2021/01/19 08:27:50;;;;;;;109.32;97.38;;;18.20;45.60;;;;;;5097446;28;20036;-59
2021/01/19 08:30:24;;;;;;;105.72;94.43;;;18.20;45.60;;;;;;5097293;28;20400;-59
2021/01/19 08:32:51;;;;;;;103.97;92.57;;;18.20;45.70;;;;;;5097111;28;20421;-60
2021/01/19 08:35:18;;;;;;;101.38;90.32;;;18.30;45.80;;;;;;5097338;28;20493;-61
2021/01/19 08:37:50;;;;;;;98.47;87.95;;;18.30;45.80;;;;;;5097207;28;20110;-60
2021/01/19 08:40:28;;;;;;;99.38;88.55;;;18.20;45.80;;;;;;5097197;28;20429;-61
2021/01/19 08:42:56;;;;;;;97.90;86.70;;;18.30;45.90;;;;;;5097090;28;20093;-60
2021/01/19 08:45:38;;;;;;;95.70;85.35;;;18.40;45.90;;;;;;5095681;28;20060;-60
2021/01/19 08:48:06;;;;;;;90.85;80.28;;;18.40;45.90;;;;;;5096975;28;20055;-61
2021/01/19 08:50:36;;;;;;;92.15;82.07;;;18.40;45.80;;;;;;5097054;28;20095;-59
2021/01/19 08:53:13;;;;;;;88.77;79.33;;;18.40;45.70;;;;;;5095689;28;20053;-59
2021/01/19 08:55:39;;;;;;;90.30;79.88;;;18.50;45.80;;;;;;5096970;28;20079;-59
2021/01/19 08:58:06;;;;;;;86.90;77.07;;;18.50;45.70;;;;;;5096583;28;20067;-59
2021/01/19 09:00:37;;;;;;;83.28;74.30;;;18.50;45.70;;;;;;5096721;28;20111;-59
2021/01/19 09:03:14;;;;;;;83.63;74.03;;;18.50;45.70;;;;;;5095340;28;20078;-61
2021/01/19 09:05:40;;;;;;;85.93;76.63;;;18.60;45.80;;;;;;5096690;28;20526;-61
2021/01/19 09:08:12;;;;;;;82.03;73.18;;;18.60;45.70;;;;;;5096594;28;20470;-61
2021/01/19 09:10:38;;;;;;;82.78;73.88;;;18.60;45.80;;;;;;5096540;28;20119;-60
2021/01/19 09:13:05;;;;;;;81.10;72.47;;;18.60;45.70;;;;;;5096396;28;20462;-60
2021/01/19 09:15:41;;;;;;;80.88;72.32;;;18.70;45.80;;;;;;5078235;28;20032;-61
2021/01/19 09:18:11;;;;;;;82.47;73.45;;;18.60;45.80;;;;;;5094711;28;20038;-59
2021/01/19 09:20:38;;;;;;;49.30;41.70;;;18.70;45.80;;;;;;5095102;28;20085;-55
2021/01/19 09:23:15;;;;;;;45.83;40.92;;;18.80;45.40;;;;;;5096436;28;20458;-56
2021/01/19 09:25:45;;;;;;;40.58;34.58;;;18.80;45.20;;;;;;5095144;28;20028;-59
2021/01/19 09:28:13;;;;;;;32.63;28.95;;;18.80;45.20;;;;;;5096471;28;20023;-58
2021/01/19 09:30:39;;;;;;;31.58;27.83;;;18.70;45.00;;;;;;5078274;28;20346;-58
2021/01/19 09:33:13;;;;;;;23.10;19.10;;;18.80;44.90;;;;;;5094481;28;20080;-57
2021/01/19 09:35:40;;;;;;;23.33;19.50;;;18.80;44.60;;;;;;5096324;28;20035;-58
2021/01/19 09:38:21;;;;;;;24.48;20.35;;;18.80;44.60;;;;;;5096030;28;20462;-54
2021/01/19 09:40:48;;;;;;;21.25;17.52;;;18.80;44.70;;;;;;5096257;28;20111;-55
2021/01/19 09:43:16;;;;;;;22.75;13.93;;;18.80;44.70;;;;;;5094790;28;20137;-54
2021/01/19 09:45:43;;;;;;;16.63;13.52;;;18.80;44.60;;;;;;5095838;28;20427;-57
2021/01/19 09:48:11;;;;;;;16.48;12.88;;;18.80;44.60;;;;;;5095859;28;20032;-55
2021/01/19 09:50:37;;;;;;;17.02;11.52;;;18.80;44.40;;;;;;5095954;28;20028;-57
2021/01/19 09:53:03;;;;;;;16.95;11.27;;;18.90;44.40;;;;;;5095921;28;20118;-57
2021/01/19 09:55:31;;;;;;;17.27;10.50;;;18.90;44.40;;;;;;5095747;28;20112;-57
2021/01/19 09:58:01;;;;;;;13.68;9.57;;;18.90;44.40;;;;;;5095506;28;20032;-57
2021/01/19 10:00:28;;;;;;;;;;;18.90;44.30;;;;;;5095976;28;20493;-56
2021/01/19 10:02:54;;;;;;;13.40;8.20;;;19.00;45.10;;;;;;5095722;28;19904;-58
2021/01/19 10:05:23;;;;;;;14.35;6.82;;;19.00;44.10;;;;;;5095913;28;20024;-56
2021/01/19 10:07:50;;;;;;;9.18;6.03;;;19.00;44.00;;;;;;5095400;28;20024;-54
2021/01/19 10:10:18;;;;;;;10.18;7.00;;;19.10;44.10;;;;;;5111190;28;20031;-57
2021/01/19 10:12:44;;;;;;;12.75;6.53;;;19.10;44.10;;;;;;5095410;28;20099;-57
2021/01/19 10:15:12;;;;;;;8.40;5.88;;;19.10;44.10;;;;;;5095496;28;20149;-57
2021/01/19 10:17:39;;;;;;;8.05;5.85;;;19.20;44.10;;;;;;5095476;28;20059;-59
2021/01/19 10:20:09;;;;;;;8.38;5.57;;;19.20;44.00;;;;;;5111166;28;20107;-59
2021/01/19 10:22:41;;;;;;;11.63;6.18;;;19.20;44.00;;;;;;5093957;28;20024;-55
2021/01/19 10:25:09;;;;;;;10.77;5.97;;;19.20;43.90;;;;;;5093845;28;20024;-55
2021/01/19 10:27:44;;;;;;;8.20;6.13;;;19.30;43.90;;;;;;5095262;28;20098;-55
2021/01/19 10:30:13;;;;;;;9.00;5.53;;;19.40;43.80;;;;;;5110561;28;20036;-55
2021/01/19 10:32:50;;;;;;;8.07;5.85;;;19.50;43.80;;;;;;5074695;28;20386;-57
2021/01/19 10:35:37;;;;;;;8.45;6.32;;;19.50;43.70;;;;;;5094337;28;20031;-54
2021/01/19 10:38:06;;;;;;;9.05;5.65;;;19.60;43.90;;;;;;5086692;28;20047;-54
2021/01/19 10:40:32;;;;;;;10.15;5.80;;;19.70;43.80;;;;;;5090127;28;20028;-56
2021/01/19 10:43:09;;;;;;;8.30;5.65;;;19.80;43.80;;;;;;5075204;28;20066;-57
2021/01/19 10:45:38;;;;;;;10.27;5.80;;;20.10;43.80;;;;;;5092945;28;20030;-57
2021/01/19 10:48:06;;;;;;;12.30;6.72;;;20.30;43.40;;;;;;5094725;28;20500;-59
2021/01/19 10:50:33;;;;;;;13.15;7.57;;;20.50;43.10;;;;;;5094896;28;20111;-58
2021/01/19 10:53:04;;;;;;;12.20;6.05;;;20.60;42.90;;;;;;5094898;28;20512;-58
2021/01/19 10:55:31;;;;;;;8.95;5.47;;;20.60;42.60;;;;;;5094761;28;20028;-57
2021/01/19 10:57:59;;;;;;;16.10;9.27;;;20.60;42.80;;;;;;5095181;28;20035;-56
2021/01/19 11:00:27;;;;;;;12.80;9.95;;;20.60;42.70;;;;;;5094652;28;20024;-58
2021/01/19 11:02:54;;;;;;;13.60;8.13;;;20.60;42.80;;;;;;5093347;28;20024;-57
2021/01/19 11:05:21;;;;;;;11.40;6.95;;;20.70;43.00;;;;;;5082083;28;20032;-57
2021/01/19 11:07:49;;;;;;;10.88;6.28;;;20.70;43.20;;;;;;5089339;28;20028;-58
2021/01/19 11:10:17;;;;;;;9.55;6.53;;;20.70;43.30;;;;;;5091513;28;20035;-57
2021/01/19 11:12:43;;;;;;;15.88;8.27;;;20.80;43.40;;;;;;5093168;28;20035;-58
2021/01/19 11:15:11;;;;;;;18.98;8.40;;;20.80;43.30;;;;;;5094423;28;20056;-58
2021/01/19 11:17:37;;;;;;;10.95;6.40;;;20.90;43.30;;;;;;5093678;28;20035;-57
2021/01/19 11:20:09;;;;;;;6.15;4.63;;;21.00;43.80;;;;;;5094037;28;20414;-61
2021/01/19 11:22:35;;;;;;;13.63;4.40;;;21.00;44.50;;;;;;5093198;28;20024;-58
2021/01/19 11:25:03;;;;;;;9.38;5.40;;;21.10;44.90;;;;;;5092103;28;20115;-61
2021/01/19 11:27:29;;;;;;;8.88;4.97;;;21.20;44.80;;;;;;5093608;28;20158;-58
2021/01/19 11:29:55;;;;;;;8.70;5.75;;;21.40;44.90;;;;;;5094246;28;20024;-59
2021/01/19 11:32:21;;;;;;;5.20;3.13;;;21.60;44.80;;;;;;5093990;28;20039;-59
2021/01/19 11:34:48;;;;;;;3.85;2.15;;;21.90;45.10;;;;;;5093669;28;20478;-59
2021/01/19 11:37:15;;;;;;;4.25;1.60;;;22.20;44.80;;;;;;5108659;28;20055;-59
2021/01/19 11:39:41;;;;;;;3.40;1.92;;;22.60;44.20;;;;;;5092366;28;20043;-59
2021/01/19 11:42:08;;;;;;;3.00;2.28;;;23.00;43.30;;;;;;5093383;28;20485;-58
2021/01/19 11:44:34;;;;;;;2.70;1.52;;;23.50;42.30;;;;;;5093283;28;20020;-59
2021/01/19 11:47:00;;;;;;;3.58;1.90;;;24.10;41.70;;;;;;5093159;28;20031;-57
2021/01/19 11:49:26;;;;;;;6.10;2.60;;;24.60;40.90;;;;;;5093183;28;20036;-57
2021/01/19 11:51:53;;;;;;;5.53;2.00;;;25.20;40.00;;;;;;5093430;28;20414;-60
2021/01/19 11:54:19;;;;;;;2.97;1.70;;;25.70;38.80;;;;;;5093205;28;20109;-61
2021/01/19 11:56:48;;;;;;;4.07;1.95;;;26.20;38.40;;;;;;5093204;28;20035;-57
2021/01/19 11:59:15;;;;;;;4.53;1.73;;;26.70;38.00;;;;;;5093454;28;20081;-58
2021/01/19 12:01:42;;;;;;;6.72;1.70;;;27.10;37.40;;;;;;5109064;28;20020;-58
2021/01/19 12:04:09;;;;;;;3.28;1.40;;;27.50;36.60;;;;;;5108958;28;20039;-58
2021/01/19 12:06:37;;;;;;;3.33;1.88;;;27.80;36.20;;;;;;5093271;28;20028;-61
2021/01/19 12:09:05;;;;;;;2.95;1.40;;;28.10;34.90;;;;;;5091919;28;20028;-60
2021/01/19 12:11:31;;;;;;;2.90;2.00;;;28.30;35.20;;;;;;5091951;28;20028;-61
2021/01/19 12:13:57;;;;;;;3.28;1.90;;;28.40;35.40;;;;;;5093347;28;20477;-60
2021/01/19 12:16:24;;;;;;;4.85;1.40;;;28.50;34.70;;;;;;5093091;28;20032;-57
2021/01/19 12:18:51;;;;;;;5.07;1.80;;;28.60;35.10;;;;;;5093036;28;20060;-59
2021/01/19 12:21:18;;;;;;;3.15;1.67;;;28.80;35.20;;;;;;5091114;28;20024;-59
2021/01/19 12:23:47;;;;;;;2.13;1.35;;;28.80;34.90;;;;;;5093395;28;20107;-61
2021/01/19 12:26:14;;;;;;;5.30;1.93;;;28.90;34.40;;;;;;5091316;28;20092;-58
2021/01/19 12:28:42;;;;;;;1.92;1.45;;;29.00;34.70;;;;;;5081447;28;20343;-58
2021/01/19 12:31:09;;;;;;;2.42;1.45;;;29.10;34.30;;;;;;5084401;28;20028;-60
2021/01/19 12:33:35;;;;;;;3.75;1.90;;;29.10;34.20;;;;;;5088653;28;20051;-61
2021/01/19 12:36:01;;;;;;;3.17;2.33;;;29.10;33.30;;;;;;5085163;28;20397;-62
2021/01/19 12:38:27;;;;;;;3.40;1.65;;;28.80;33.90;;;;;;5092512;28;20060;-63
2021/01/19 12:40:53;;;;;;;3.72;1.92;;;28.50;34.60;;;;;;5092608;28;20482;-61
2021/01/19 12:43:19;;;;;;;3.53;2.80;;;28.50;34.80;;;;;;5090824;28;20024;-63
2021/01/19 12:45:45;;;;;;;7.72;3.25;;;28.60;34.70;;;;;;5091943;28;20060;-61
2021/01/19 12:48:11;;;;;;;5.38;2.90;;;28.80;34.50;;;;;;5090226;28;20020;-64